Aviation Digital Data Service (ADDS)

Output produced by METARs form (1807 UTC 25 May 2017)
found at http://www.aviationweather.gov/adds/metars/
 
METAR text: RJNK 251800Z 12003KT 9999 SCT100 BKN/// 17/13 Q1001
Conditions at: RJNK (KOMATSU (CIV/JAS, JP) observed 1800 UTC 25 May 2017
Temperature: 17.0°C (63°F)
Dewpoint: 13.0°C (55°F) [RH = 77%]
Pressure (altimeter): 29.56 inches Hg (1001.0 mb)
Winds: from the ESE (120 degrees) at 3 MPH (3 knots; 1.6 m/s)
Visibility: 6 or more miles (10+ km)
Ceiling: at least 12,000 feet AGL
Clouds: scattered clouds at 10000 feet AGL
Weather: no significant weather observed at this time